sensor_id;sensor_type;location;lat;lon;timestamp;P1;durP1;ratioP1;P2;durP2;ratioP2
18435;SDS011;9346;52.006;4.720;2023-06-24T00:01:30;4.10;;;1.33;;
18435;SDS011;9346;52.006;4.720;2023-06-24T00:03:58;1.33;;;1.23;;
18435;SDS011;9346;52.006;4.720;2023-06-24T00:06:29;1.53;;;1.43;;
18435;SDS011;9346;52.006;4.720;2023-06-24T00:08:57;1.70;;;1.40;;
18435;SDS011;9346;52.006;4.720;2023-06-24T00:11:27;2.73;;;1.43;;
18435;SDS011;9346;52.006;4.720;2023-06-24T00:13:55;1.60;;;1.10;;
18435;SDS011;9346;52.006;4.720;2023-06-24T00:16:22;2.50;;;1.77;;
18435;SDS011;9346;52.006;4.720;2023-06-24T00:18:52;2.40;;;1.63;;
18435;SDS011;9346;52.006;4.720;2023-06-24T00:21:20;2.00;;;1.57;;
18435;SDS011;9346;52.006;4.720;2023-06-24T00:23:47;2.97;;;2.03;;
18435;SDS011;9346;52.006;4.720;2023-06-24T00:26:17;3.80;;;2.80;;
18435;SDS011;9346;52.006;4.720;2023-06-24T00:28:44;3.60;;;2.87;;
18435;SDS011;9346;52.006;4.720;2023-06-24T00:31:11;3.27;;;2.97;;
18435;SDS011;9346;52.006;4.720;2023-06-24T00:33:38;3.57;;;3.00;;
18435;SDS011;9346;52.006;4.720;2023-06-24T00:36:05;4.93;;;3.47;;
18435;SDS011;9346;52.006;4.720;2023-06-24T00:38:33;4.20;;;3.60;;
18435;SDS011;9346;52.006;4.720;2023-06-24T00:41:00;4.43;;;3.63;;
18435;SDS011;9346;52.006;4.720;2023-06-24T00:43:29;6.10;;;3.40;;
18435;SDS011;9346;52.006;4.720;2023-06-24T00:45:57;3.90;;;2.83;;
18435;SDS011;9346;52.006;4.720;2023-06-24T00:48:24;3.60;;;3.07;;
18435;SDS011;9346;52.006;4.720;2023-06-24T00:50:50;3.93;;;3.20;;
18435;SDS011;9346;52.006;4.720;2023-06-24T00:53:18;3.67;;;3.17;;
18435;SDS011;9346;52.006;4.720;2023-06-24T00:55:49;4.77;;;3.77;;
18435;SDS011;9346;52.006;4.720;2023-06-24T00:58:17;4.23;;;3.23;;
18435;SDS011;9346;52.006;4.720;2023-06-24T01:00:47;3.90;;;2.97;;
18435;SDS011;9346;52.006;4.720;2023-06-24T01:03:22;4.87;;;3.27;;
18435;SDS011;9346;52.006;4.720;2023-06-24T01:05:50;3.90;;;2.90;;
18435;SDS011;9346;52.006;4.720;2023-06-24T01:08:18;5.57;;;3.40;;
18435;SDS011;9346;52.006;4.720;2023-06-24T01:10:47;4.40;;;3.47;;
18435;SDS011;9346;52.006;4.720;2023-06-24T01:13:16;3.50;;;2.83;;
18435;SDS011;9346;52.006;4.720;2023-06-24T01:15:43;3.97;;;2.73;;
18435;SDS011;9346;52.006;4.720;2023-06-24T01:18:13;4.43;;;3.33;;
18435;SDS011;9346;52.006;4.720;2023-06-24T01:20:49;5.67;;;3.50;;
18435;SDS011;9346;52.006;4.720;2023-06-24T01:23:28;4.27;;;2.83;;
18435;SDS011;9346;52.006;4.720;2023-06-24T01:26:21;4.00;;;2.90;;
18435;SDS011;9346;52.006;4.720;2023-06-24T01:29:07;3.53;;;2.60;;
18435;SDS011;9346;52.006;4.720;2023-06-24T01:31:55;2.40;;;2.20;;
18435;SDS011;9346;52.006;4.720;2023-06-24T01:34:28;3.33;;;2.30;;
18435;SDS011;9346;52.006;4.720;2023-06-24T01:37:01;2.97;;;1.87;;
18435;SDS011;9346;52.006;4.720;2023-06-24T01:39:36;2.53;;;1.90;;
18435;SDS011;9346;52.006;4.720;2023-06-24T01:42:10;2.10;;;1.73;;
18435;SDS011;9346;52.006;4.720;2023-06-24T01:44:38;2.63;;;1.60;;
18435;SDS011;9346;52.006;4.720;2023-06-24T01:47:10;1.80;;;1.50;;
18435;SDS011;9346;52.006;4.720;2023-06-24T01:49:41;2.17;;;1.57;;
18435;SDS011;9346;52.006;4.720;2023-06-24T01:52:09;2.27;;;2.00;;
18435;SDS011;9346;52.006;4.720;2023-06-24T01:54:38;2.20;;;1.67;;
18435;SDS011;9346;52.006;4.720;2023-06-24T01:57:08;3.47;;;2.30;;
18435;SDS011;9346;52.006;4.720;2023-06-24T01:59:39;2.60;;;2.00;;
18435;SDS011;9346;52.006;4.720;2023-06-24T02:02:11;2.97;;;1.80;;
18435;SDS011;9346;52.006;4.720;2023-06-24T02:04:39;2.13;;;1.83;;
18435;SDS011;9346;52.006;4.720;2023-06-24T02:07:07;2.67;;;2.00;;
18435;SDS011;9346;52.006;4.720;2023-06-24T02:09:35;3.73;;;2.23;;
18435;SDS011;9346;52.006;4.720;2023-06-24T02:12:05;2.87;;;2.23;;
18435;SDS011;9346;52.006;4.720;2023-06-24T02:14:35;4.10;;;2.23;;
18435;SDS011;9346;52.006;4.720;2023-06-24T02:17:04;3.50;;;1.93;;
18435;SDS011;9346;52.006;4.720;2023-06-24T02:19:36;3.53;;;2.40;;
18435;SDS011;9346;52.006;4.720;2023-06-24T02:22:05;2.27;;;1.97;;
18435;SDS011;9346;52.006;4.720;2023-06-24T02:24:35;2.50;;;2.10;;
18435;SDS011;9346;52.006;4.720;2023-06-24T02:27:05;3.70;;;2.70;;
18435;SDS011;9346;52.006;4.720;2023-06-24T02:29:33;2.60;;;1.80;;
18435;SDS011;9346;52.006;4.720;2023-06-24T02:32:03;2.63;;;2.10;;
18435;SDS011;9346;52.006;4.720;2023-06-24T02:34:31;2.97;;;2.27;;
18435;SDS011;9346;52.006;4.720;2023-06-24T02:37:01;2.97;;;2.20;;
18435;SDS011;9346;52.006;4.720;2023-06-24T02:39:28;3.37;;;2.47;;
18435;SDS011;9346;52.006;4.720;2023-06-24T02:41:55;4.57;;;2.97;;
18435;SDS011;9346;52.006;4.720;2023-06-24T02:44:22;3.20;;;2.30;;
18435;SDS011;9346;52.006;4.720;2023-06-24T02:46:49;4.40;;;2.73;;
18435;SDS011;9346;52.006;4.720;2023-06-24T02:49:17;4.80;;;2.90;;
18435;SDS011;9346;52.006;4.720;2023-06-24T02:51:45;3.60;;;2.43;;
18435;SDS011;9346;52.006;4.720;2023-06-24T02:54:16;3.77;;;2.60;;
18435;SDS011;9346;52.006;4.720;2023-06-24T02:56:44;5.00;;;2.60;;
18435;SDS011;9346;52.006;4.720;2023-06-24T02:59:13;8.73;;;2.90;;
18435;SDS011;9346;52.006;4.720;2023-06-24T03:01:41;4.63;;;2.97;;
18435;SDS011;9346;52.006;4.720;2023-06-24T03:04:10;4.87;;;2.83;;
18435;SDS011;9346;52.006;4.720;2023-06-24T03:06:38;12.93;;;3.30;;
18435;SDS011;9346;52.006;4.720;2023-06-24T03:09:06;3.43;;;2.60;;
18435;SDS011;9346;52.006;4.720;2023-06-24T03:11:42;2.73;;;2.40;;
18435;SDS011;9346;52.006;4.720;2023-06-24T03:14:09;5.07;;;3.00;;
18435;SDS011;9346;52.006;4.720;2023-06-24T03:16:37;2.97;;;2.40;;
18435;SDS011;9346;52.006;4.720;2023-06-24T03:19:04;3.93;;;3.00;;
18435;SDS011;9346;52.006;4.720;2023-06-24T03:21:31;3.17;;;2.50;;
18435;SDS011;9346;52.006;4.720;2023-06-24T03:24:01;4.97;;;3.20;;
18435;SDS011;9346;52.006;4.720;2023-06-24T03:26:32;3.93;;;3.20;;
18435;SDS011;9346;52.006;4.720;2023-06-24T03:29:01;5.27;;;3.60;;
18435;SDS011;9346;52.006;4.720;2023-06-24T03:31:28;5.37;;;3.70;;
18435;SDS011;9346;52.006;4.720;2023-06-24T03:33:56;4.10;;;3.27;;
18435;SDS011;9346;52.006;4.720;2023-06-24T03:36:23;4.57;;;3.53;;
18435;SDS011;9346;52.006;4.720;2023-06-24T03:38:51;4.90;;;3.57;;
18435;SDS011;9346;52.006;4.720;2023-06-24T03:41:18;4.60;;;3.27;;
18435;SDS011;9346;52.006;4.720;2023-06-24T03:43:47;5.37;;;3.87;;
18435;SDS011;9346;52.006;4.720;2023-06-24T03:46:16;5.03;;;3.60;;
18435;SDS011;9346;52.006;4.720;2023-06-24T03:48:43;5.80;;;3.23;;
18435;SDS011;9346;52.006;4.720;2023-06-24T03:51:10;4.23;;;3.43;;
18435;SDS011;9346;52.006;4.720;2023-06-24T03:53:37;7.13;;;3.70;;
18435;SDS011;9346;52.006;4.720;2023-06-24T03:56:05;6.90;;;3.60;;
18435;SDS011;9346;52.006;4.720;2023-06-24T03:58:32;6.40;;;3.90;;
18435;SDS011;9346;52.006;4.720;2023-06-24T04:00:59;5.10;;;3.57;;
18435;SDS011;9346;52.006;4.720;2023-06-24T04:03:30;4.63;;;3.60;;
18435;SDS011;9346;52.006;4.720;2023-06-24T04:05:57;5.07;;;3.83;;
18435;SDS011;9346;52.006;4.720;2023-06-24T04:08:26;5.43;;;4.10;;
18435;SDS011;9346;52.006;4.720;2023-06-24T04:10:54;4.30;;;3.77;;
18435;SDS011;9346;52.006;4.720;2023-06-24T04:13:21;6.83;;;4.20;;
18435;SDS011;9346;52.006;4.720;2023-06-24T04:15:48;9.10;;;3.83;;
18435;SDS011;9346;52.006;4.720;2023-06-24T04:18:15;6.33;;;3.50;;
18435;SDS011;9346;52.006;4.720;2023-06-24T04:20:44;4.20;;;3.13;;
18435;SDS011;9346;52.006;4.720;2023-06-24T04:23:11;4.57;;;3.43;;
18435;SDS011;9346;52.006;4.720;2023-06-24T04:25:39;5.37;;;3.70;;
18435;SDS011;9346;52.006;4.720;2023-06-24T04:28:07;6.20;;;3.57;;
18435;SDS011;9346;52.006;4.720;2023-06-24T04:30:34;5.47;;;4.00;;
18435;SDS011;9346;52.006;4.720;2023-06-24T04:33:03;4.10;;;3.50;;
18435;SDS011;9346;52.006;4.720;2023-06-24T04:35:30;6.10;;;4.03;;
18435;SDS011;9346;52.006;4.720;2023-06-24T04:37:59;4.13;;;3.73;;
18435;SDS011;9346;52.006;4.720;2023-06-24T04:40:25;5.77;;;3.70;;
18435;SDS011;9346;52.006;4.720;2023-06-24T04:42:53;4.03;;;2.80;;
18435;SDS011;9346;52.006;4.720;2023-06-24T04:45:20;4.63;;;3.00;;
18435;SDS011;9346;52.006;4.720;2023-06-24T04:47:47;3.77;;;3.20;;
18435;SDS011;9346;52.006;4.720;2023-06-24T04:50:13;4.97;;;3.33;;
18435;SDS011;9346;52.006;4.720;2023-06-24T04:52:41;4.77;;;3.90;;
18435;SDS011;9346;52.006;4.720;2023-06-24T04:55:10;5.10;;;3.57;;
18435;SDS011;9346;52.006;4.720;2023-06-24T04:57:37;5.20;;;3.60;;
18435;SDS011;9346;52.006;4.720;2023-06-24T05:00:06;5.03;;;3.40;;
18435;SDS011;9346;52.006;4.720;2023-06-24T05:02:34;4.93;;;3.73;;
18435;SDS011;9346;52.006;4.720;2023-06-24T05:05:01;4.33;;;3.47;;
18435;SDS011;9346;52.006;4.720;2023-06-24T05:07:28;7.60;;;3.30;;
18435;SDS011;9346;52.006;4.720;2023-06-24T05:09:56;3.80;;;3.27;;
18435;SDS011;9346;52.006;4.720;2023-06-24T05:12:24;4.57;;;3.13;;
18435;SDS011;9346;52.006;4.720;2023-06-24T05:14:52;4.30;;;3.23;;
18435;SDS011;9346;52.006;4.720;2023-06-24T05:17:19;3.87;;;3.20;;
18435;SDS011;9346;52.006;4.720;2023-06-24T05:19:46;6.30;;;3.50;;
18435;SDS011;9346;52.006;4.720;2023-06-24T05:22:15;4.97;;;3.60;;
18435;SDS011;9346;52.006;4.720;2023-06-24T05:24:44;5.57;;;3.80;;
18435;SDS011;9346;52.006;4.720;2023-06-24T05:27:11;4.17;;;3.30;;
18435;SDS011;9346;52.006;4.720;2023-06-24T05:29:40;4.70;;;3.77;;
18435;SDS011;9346;52.006;4.720;2023-06-24T05:32:07;6.00;;;3.50;;
18435;SDS011;9346;52.006;4.720;2023-06-24T05:34:34;5.13;;;3.70;;
18435;SDS011;9346;52.006;4.720;2023-06-24T05:37:00;4.47;;;3.60;;
18435;SDS011;9346;52.006;4.720;2023-06-24T05:39:28;5.53;;;3.43;;
18435;SDS011;9346;52.006;4.720;2023-06-24T05:41:55;6.67;;;3.80;;
18435;SDS011;9346;52.006;4.720;2023-06-24T05:44:22;6.37;;;4.20;;
18435;SDS011;9346;52.006;4.720;2023-06-24T05:46:50;4.73;;;3.47;;
18435;SDS011;9346;52.006;4.720;2023-06-24T05:49:17;5.80;;;3.73;;
18435;SDS011;9346;52.006;4.720;2023-06-24T05:51:45;4.73;;;3.37;;
18435;SDS011;9346;52.006;4.720;2023-06-24T05:54:12;4.13;;;3.00;;
18435;SDS011;9346;52.006;4.720;2023-06-24T05:56:39;5.90;;;3.67;;
18435;SDS011;9346;52.006;4.720;2023-06-24T05:59:06;8.00;;;3.97;;
18435;SDS011;9346;52.006;4.720;2023-06-24T06:01:33;6.03;;;3.50;;
18435;SDS011;9346;52.006;4.720;2023-06-24T06:04:03;5.77;;;3.40;;
18435;SDS011;9346;52.006;4.720;2023-06-24T06:06:30;4.53;;;3.60;;
18435;SDS011;9346;52.006;4.720;2023-06-24T06:08:58;4.37;;;3.53;;
18435;SDS011;9346;52.006;4.720;2023-06-24T06:11:27;5.80;;;4.00;;
18435;SDS011;9346;52.006;4.720;2023-06-24T06:13:54;6.63;;;4.37;;
18435;SDS011;9346;52.006;4.720;2023-06-24T06:16:21;4.70;;;3.77;;
18435;SDS011;9346;52.006;4.720;2023-06-24T06:18:48;7.07;;;3.67;;
18435;SDS011;9346;52.006;4.720;2023-06-24T06:21:17;4.97;;;3.27;;
18435;SDS011;9346;52.006;4.720;2023-06-24T06:23:44;4.67;;;3.60;;
18435;SDS011;9346;52.006;4.720;2023-06-24T06:26:11;6.83;;;4.30;;
18435;SDS011;9346;52.006;4.720;2023-06-24T06:28:38;7.67;;;4.00;;
18435;SDS011;9346;52.006;4.720;2023-06-24T06:31:05;5.23;;;3.93;;
18435;SDS011;9346;52.006;4.720;2023-06-24T06:33:32;9.10;;;4.20;;
18435;SDS011;9346;52.006;4.720;2023-06-24T06:35:59;7.67;;;4.60;;
18435;SDS011;9346;52.006;4.720;2023-06-24T06:38:28;4.83;;;3.47;;
18435;SDS011;9346;52.006;4.720;2023-06-24T06:40:55;6.97;;;4.03;;
18435;SDS011;9346;52.006;4.720;2023-06-24T06:43:22;5.07;;;4.20;;
18435;SDS011;9346;52.006;4.720;2023-06-24T06:45:49;4.73;;;3.60;;
18435;SDS011;9346;52.006;4.720;2023-06-24T06:48:16;6.10;;;4.40;;
18435;SDS011;9346;52.006;4.720;2023-06-24T06:50:43;5.93;;;3.20;;
18435;SDS011;9346;52.006;4.720;2023-06-24T06:53:10;4.40;;;3.67;;
18435;SDS011;9346;52.006;4.720;2023-06-24T06:55:44;5.93;;;4.10;;
18435;SDS011;9346;52.006;4.720;2023-06-24T06:58:11;4.43;;;3.17;;
18435;SDS011;9346;52.006;4.720;2023-06-24T07:00:38;6.07;;;3.60;;
18435;SDS011;9346;52.006;4.720;2023-06-24T07:03:05;5.97;;;3.40;;
18435;SDS011;9346;52.006;4.720;2023-06-24T07:05:32;4.80;;;3.47;;
18435;SDS011;9346;52.006;4.720;2023-06-24T07:07:59;5.73;;;3.63;;
18435;SDS011;9346;52.006;4.720;2023-06-24T07:10:26;6.47;;;4.47;;
18435;SDS011;9346;52.006;4.720;2023-06-24T07:12:55;5.63;;;3.73;;
18435;SDS011;9346;52.006;4.720;2023-06-24T07:15:23;6.60;;;4.00;;
18435;SDS011;9346;52.006;4.720;2023-06-24T07:17:51;4.77;;;4.07;;
18435;SDS011;9346;52.006;4.720;2023-06-24T07:20:19;6.17;;;3.77;;
18435;SDS011;9346;52.006;4.720;2023-06-24T07:22:47;6.13;;;4.50;;
18435;SDS011;9346;52.006;4.720;2023-06-24T07:25:14;8.13;;;4.67;;
18435;SDS011;9346;52.006;4.720;2023-06-24T07:27:41;6.67;;;4.27;;
18435;SDS011;9346;52.006;4.720;2023-06-24T07:30:10;6.57;;;3.73;;
18435;SDS011;9346;52.006;4.720;2023-06-24T07:32:37;5.97;;;4.00;;
18435;SDS011;9346;52.006;4.720;2023-06-24T07:35:05;4.93;;;3.63;;
18435;SDS011;9346;52.006;4.720;2023-06-24T07:37:33;5.30;;;4.10;;
18435;SDS011;9346;52.006;4.720;2023-06-24T07:40:01;6.70;;;4.30;;
18435;SDS011;9346;52.006;4.720;2023-06-24T07:42:30;5.43;;;4.03;;
18435;SDS011;9346;52.006;4.720;2023-06-24T07:44:57;7.20;;;4.10;;
18435;SDS011;9346;52.006;4.720;2023-06-24T07:47:26;4.87;;;3.50;;
18435;SDS011;9346;52.006;4.720;2023-06-24T07:49:53;5.10;;;3.43;;
18435;SDS011;9346;52.006;4.720;2023-06-24T07:52:21;7.07;;;4.20;;
18435;SDS011;9346;52.006;4.720;2023-06-24T07:54:48;4.77;;;3.53;;
18435;SDS011;9346;52.006;4.720;2023-06-24T07:57:15;5.70;;;3.70;;
18435;SDS011;9346;52.006;4.720;2023-06-24T07:59:42;4.23;;;3.73;;
18435;SDS011;9346;52.006;4.720;2023-06-24T08:02:09;6.60;;;3.40;;
18435;SDS011;9346;52.006;4.720;2023-06-24T08:04:38;4.70;;;3.67;;
18435;SDS011;9346;52.006;4.720;2023-06-24T08:07:05;5.73;;;3.87;;
18435;SDS011;9346;52.006;4.720;2023-06-24T08:09:32;5.20;;;3.40;;
18435;SDS011;9346;52.006;4.720;2023-06-24T08:11:59;5.07;;;3.70;;
18435;SDS011;9346;52.006;4.720;2023-06-24T08:14:26;6.13;;;3.83;;
18435;SDS011;9346;52.006;4.720;2023-06-24T08:16:53;5.43;;;3.93;;
18435;SDS011;9346;52.006;4.720;2023-06-24T08:19:20;10.80;;;3.70;;
18435;SDS011;9346;52.006;4.720;2023-06-24T08:21:49;6.47;;;4.00;;
18435;SDS011;9346;52.006;4.720;2023-06-24T08:24:16;6.40;;;3.83;;
18435;SDS011;9346;52.006;4.720;2023-06-24T08:26:43;7.30;;;4.10;;
18435;SDS011;9346;52.006;4.720;2023-06-24T08:29:10;5.77;;;4.13;;
18435;SDS011;9346;52.006;4.720;2023-06-24T08:31:37;7.23;;;4.40;;
18435;SDS011;9346;52.006;4.720;2023-06-24T08:34:04;6.37;;;4.63;;
18435;SDS011;9346;52.006;4.720;2023-06-24T08:36:31;5.67;;;3.83;;
18435;SDS011;9346;52.006;4.720;2023-06-24T08:39:01;5.53;;;4.10;;
18435;SDS011;9346;52.006;4.720;2023-06-24T08:41:28;5.43;;;4.03;;
18435;SDS011;9346;52.006;4.720;2023-06-24T08:43:55;5.40;;;3.87;;
18435;SDS011;9346;52.006;4.720;2023-06-24T08:46:23;5.73;;;4.13;;
18435;SDS011;9346;52.006;4.720;2023-06-24T08:48:51;6.50;;;4.33;;
18435;SDS011;9346;52.006;4.720;2023-06-24T08:51:26;5.93;;;4.23;;
18435;SDS011;9346;52.006;4.720;2023-06-24T08:53:56;6.30;;;4.50;;
18435;SDS011;9346;52.006;4.720;2023-06-24T08:56:26;7.43;;;4.33;;
18435;SDS011;9346;52.006;4.720;2023-06-24T08:58:54;8.00;;;4.47;;
18435;SDS011;9346;52.006;4.720;2023-06-24T09:01:22;5.93;;;4.33;;
18435;SDS011;9346;52.006;4.720;2023-06-24T09:03:50;4.90;;;3.77;;
18435;SDS011;9346;52.006;4.720;2023-06-24T09:06:19;5.73;;;3.97;;
18435;SDS011;9346;52.006;4.720;2023-06-24T09:08:55;7.27;;;4.77;;
18435;SDS011;9346;52.006;4.720;2023-06-24T09:11:22;5.23;;;4.00;;
18435;SDS011;9346;52.006;4.720;2023-06-24T09:13:58;4.50;;;3.67;;
18435;SDS011;9346;52.006;4.720;2023-06-24T09:16:26;6.63;;;4.20;;
18435;SDS011;9346;52.006;4.720;2023-06-24T09:18:55;6.13;;;4.07;;
18435;SDS011;9346;52.006;4.720;2023-06-24T09:21:22;5.63;;;4.10;;
18435;SDS011;9346;52.006;4.720;2023-06-24T09:23:54;5.80;;;4.00;;
18435;SDS011;9346;52.006;4.720;2023-06-24T09:26:23;6.90;;;4.53;;
18435;SDS011;9346;52.006;4.720;2023-06-24T09:28:50;6.57;;;4.47;;
18435;SDS011;9346;52.006;4.720;2023-06-24T09:31:19;7.13;;;4.43;;
18435;SDS011;9346;52.006;4.720;2023-06-24T09:33:52;6.80;;;4.77;;
18435;SDS011;9346;52.006;4.720;2023-06-24T09:36:23;8.80;;;4.40;;
18435;SDS011;9346;52.006;4.720;2023-06-24T09:38:50;8.73;;;4.83;;
18435;SDS011;9346;52.006;4.720;2023-06-24T09:41:18;6.20;;;5.30;;
18435;SDS011;9346;52.006;4.720;2023-06-24T09:43:45;6.07;;;4.37;;
18435;SDS011;9346;52.006;4.720;2023-06-24T09:46:12;7.80;;;4.87;;
18435;SDS011;9346;52.006;4.720;2023-06-24T09:48:44;5.03;;;3.93;;
18435;SDS011;9346;52.006;4.720;2023-06-24T09:51:11;6.83;;;4.60;;
18435;SDS011;9346;52.006;4.720;2023-06-24T09:53:39;6.77;;;3.90;;
18435;SDS011;9346;52.006;4.720;2023-06-24T09:56:08;7.67;;;4.67;;
18435;SDS011;9346;52.006;4.720;2023-06-24T09:58:37;8.70;;;4.27;;
18435;SDS011;9346;52.006;4.720;2023-06-24T10:01:07;5.93;;;4.03;;
18435;SDS011;9346;52.006;4.720;2023-06-24T10:03:35;5.47;;;3.83;;
18435;SDS011;9346;52.006;4.720;2023-06-24T10:06:05;5.10;;;3.83;;
18435;SDS011;9346;52.006;4.720;2023-06-24T10:08:35;7.30;;;5.27;;
18435;SDS011;9346;52.006;4.720;2023-06-24T10:11:02;6.20;;;4.43;;
18435;SDS011;9346;52.006;4.720;2023-06-24T10:13:29;5.37;;;4.23;;
18435;SDS011;9346;52.006;4.720;2023-06-24T10:15:56;4.73;;;3.73;;
18435;SDS011;9346;52.006;4.720;2023-06-24T10:18:34;4.37;;;3.47;;
18435;SDS011;9346;52.006;4.720;2023-06-24T10:21:02;6.23;;;3.67;;
18435;SDS011;9346;52.006;4.720;2023-06-24T10:23:33;6.67;;;4.33;;
18435;SDS011;9346;52.006;4.720;2023-06-24T10:26:07;5.53;;;4.20;;
18435;SDS011;9346;52.006;4.720;2023-06-24T10:31:51;5.10;;;3.38;;
18435;SDS011;9346;52.006;4.720;2023-06-24T10:34:29;4.78;;;3.42;;
18435;SDS011;9346;52.006;4.720;2023-06-24T10:37:19;4.25;;;3.42;;
18435;SDS011;9346;52.006;4.720;2023-06-24T10:39:48;5.20;;;4.35;;
18435;SDS011;9346;52.006;4.720;2023-06-24T10:42:32;5.43;;;3.65;;
18435;SDS011;9346;52.006;4.720;2023-06-24T10:47:46;5.75;;;4.13;;
18435;SDS011;9346;52.006;4.720;2023-06-24T10:50:15;5.30;;;3.80;;
18435;SDS011;9346;52.006;4.720;2023-06-24T10:52:45;6.40;;;4.37;;
18435;SDS011;9346;52.006;4.720;2023-06-24T10:55:13;5.95;;;4.10;;
18435;SDS011;9346;52.006;4.720;2023-06-24T10:57:42;5.45;;;4.03;;
18435;SDS011;9346;52.006;4.720;2023-06-24T11:00:10;4.97;;;3.37;;
18435;SDS011;9346;52.006;4.720;2023-06-24T11:02:38;5.60;;;3.97;;
18435;SDS011;9346;52.006;4.720;2023-06-24T11:05:05;4.65;;;3.45;;
18435;SDS011;9346;52.006;4.720;2023-06-24T11:07:33;7.90;;;3.80;;
18435;SDS011;9346;52.006;4.720;2023-06-24T11:10:03;3.90;;;3.38;;
18435;SDS011;9346;52.006;4.720;2023-06-24T11:12:32;5.20;;;3.97;;
18435;SDS011;9346;52.006;4.720;2023-06-24T11:15:01;4.97;;;3.42;;
18435;SDS011;9346;52.006;4.720;2023-06-24T11:17:29;3.33;;;2.97;;
18435;SDS011;9346;52.006;4.720;2023-06-24T11:19:57;6.53;;;3.63;;
18435;SDS011;9346;52.006;4.720;2023-06-24T11:22:25;6.28;;;3.58;;
18435;SDS011;9346;52.006;4.720;2023-06-24T11:24:52;4.50;;;3.25;;
18435;SDS011;9346;52.006;4.720;2023-06-24T11:27:27;5.30;;;3.53;;
18435;SDS011;9346;52.006;4.720;2023-06-24T11:29:55;5.57;;;3.45;;
18435;SDS011;9346;52.006;4.720;2023-06-24T11:32:34;6.65;;;4.07;;
18435;SDS011;9346;52.006;4.720;2023-06-24T11:35:02;4.75;;;3.70;;
18435;SDS011;9346;52.006;4.720;2023-06-24T11:37:30;4.07;;;3.10;;
18435;SDS011;9346;52.006;4.720;2023-06-24T11:40:02;4.13;;;3.17;;
18435;SDS011;9346;52.006;4.720;2023-06-24T11:42:32;6.85;;;3.90;;
18435;SDS011;9346;52.006;4.720;2023-06-24T11:45:02;4.45;;;3.83;;
18435;SDS011;9346;52.006;4.720;2023-06-24T11:47:31;5.32;;;3.63;;
18435;SDS011;9346;52.006;4.720;2023-06-24T11:49:59;6.00;;;3.22;;
18435;SDS011;9346;52.006;4.720;2023-06-24T11:52:31;4.88;;;3.70;;
18435;SDS011;9346;52.006;4.720;2023-06-24T11:54:59;5.13;;;3.33;;
18435;SDS011;9346;52.006;4.720;2023-06-24T12:00:32;3.60;;;2.45;;
18435;SDS011;9346;52.006;4.720;2023-06-24T12:03:01;3.72;;;3.13;;
18435;SDS011;9346;52.006;4.720;2023-06-24T12:05:30;4.60;;;3.42;;
18435;SDS011;9346;52.006;4.720;2023-06-24T12:07:59;5.65;;;3.40;;
18435;SDS011;9346;52.006;4.720;2023-06-24T12:10:27;5.28;;;3.13;;
18435;SDS011;9346;52.006;4.720;2023-06-24T12:12:55;5.50;;;3.65;;
18435;SDS011;9346;52.006;4.720;2023-06-24T12:15:31;9.10;;;3.63;;
18435;SDS011;9346;52.006;4.720;2023-06-24T12:17:58;4.32;;;3.28;;
18435;SDS011;9346;52.006;4.720;2023-06-24T12:20:25;4.05;;;2.97;;
18435;SDS011;9346;52.006;4.720;2023-06-24T12:22:52;3.42;;;2.70;;
18435;SDS011;9346;52.006;4.720;2023-06-24T12:25:19;4.00;;;3.25;;
18435;SDS011;9346;52.006;4.720;2023-06-24T12:27:46;4.75;;;3.25;;
18435;SDS011;9346;52.006;4.720;2023-06-24T12:30:13;5.85;;;3.72;;
18435;SDS011;9346;52.006;4.720;2023-06-24T12:32:43;3.63;;;3.08;;
18435;SDS011;9346;52.006;4.720;2023-06-24T12:35:10;5.15;;;3.42;;
18435;SDS011;9346;52.006;4.720;2023-06-24T12:37:38;3.78;;;3.00;;
18435;SDS011;9346;52.006;4.720;2023-06-24T12:40:06;4.20;;;3.15;;
18435;SDS011;9346;52.006;4.720;2023-06-24T12:42:34;4.85;;;3.90;;
18435;SDS011;9346;52.006;4.720;2023-06-24T12:45:01;4.47;;;3.33;;
18435;SDS011;9346;52.006;4.720;2023-06-24T12:47:29;3.53;;;3.08;;
18435;SDS011;9346;52.006;4.720;2023-06-24T12:49:58;4.15;;;3.28;;
18435;SDS011;9346;52.006;4.720;2023-06-24T12:52:24;5.90;;;3.20;;
18435;SDS011;9346;52.006;4.720;2023-06-24T12:54:51;4.05;;;3.53;;
18435;SDS011;9346;52.006;4.720;2023-06-24T12:57:18;5.53;;;3.40;;
18435;SDS011;9346;52.006;4.720;2023-06-24T12:59:45;3.95;;;3.05;;
18435;SDS011;9346;52.006;4.720;2023-06-24T13:02:13;4.53;;;3.40;;
18435;SDS011;9346;52.006;4.720;2023-06-24T13:04:40;4.10;;;3.03;;
18435;SDS011;9346;52.006;4.720;2023-06-24T13:07:08;6.03;;;3.67;;
18435;SDS011;9346;52.006;4.720;2023-06-24T13:09:35;3.38;;;3.00;;
18435;SDS011;9346;52.006;4.720;2023-06-24T13:12:02;5.25;;;3.28;;
18435;SDS011;9346;52.006;4.720;2023-06-24T13:14:30;3.83;;;2.83;;
18435;SDS011;9346;52.006;4.720;2023-06-24T13:16:57;5.78;;;3.58;;
18435;SDS011;9346;52.006;4.720;2023-06-24T13:19:24;4.80;;;2.90;;
18435;SDS011;9346;52.006;4.720;2023-06-24T13:21:51;5.75;;;3.53;;
18435;SDS011;9346;52.006;4.720;2023-06-24T13:24:20;6.63;;;2.92;;
18435;SDS011;9346;52.006;4.720;2023-06-24T13:26:47;6.03;;;4.18;;
18435;SDS011;9346;52.006;4.720;2023-06-24T13:29:14;5.03;;;3.78;;
18435;SDS011;9346;52.006;4.720;2023-06-24T13:31:42;4.75;;;3.53;;
18435;SDS011;9346;52.006;4.720;2023-06-24T13:34:08;4.60;;;2.95;;
18435;SDS011;9346;52.006;4.720;2023-06-24T13:36:36;5.47;;;3.53;;
18435;SDS011;9346;52.006;4.720;2023-06-24T13:39:04;4.65;;;3.42;;
18435;SDS011;9346;52.006;4.720;2023-06-24T13:41:34;3.30;;;2.95;;
18435;SDS011;9346;52.006;4.720;2023-06-24T13:44:01;5.85;;;3.13;;
18435;SDS011;9346;52.006;4.720;2023-06-24T13:46:30;4.82;;;3.30;;
18435;SDS011;9346;52.006;4.720;2023-06-24T13:48:58;6.53;;;3.70;;
18435;SDS011;9346;52.006;4.720;2023-06-24T13:51:25;4.65;;;3.00;;
18435;SDS011;9346;52.006;4.720;2023-06-24T13:53:55;6.78;;;3.53;;
18435;SDS011;9346;52.006;4.720;2023-06-24T13:56:23;4.50;;;2.90;;
18435;SDS011;9346;52.006;4.720;2023-06-24T13:58:53;5.55;;;3.10;;
18435;SDS011;9346;52.006;4.720;2023-06-24T14:01:20;5.78;;;3.50;;
18435;SDS011;9346;52.006;4.720;2023-06-24T14:03:48;6.75;;;3.40;;
18435;SDS011;9346;52.006;4.720;2023-06-24T14:06:17;5.50;;;3.08;;
18435;SDS011;9346;52.006;4.720;2023-06-24T14:08:46;5.00;;;3.20;;
18435;SDS011;9346;52.006;4.720;2023-06-24T14:11:14;4.07;;;3.03;;
18435;SDS011;9346;52.006;4.720;2023-06-24T14:13:41;4.38;;;3.67;;
18435;SDS011;9346;52.006;4.720;2023-06-24T14:16:11;5.57;;;3.10;;
18435;SDS011;9346;52.006;4.720;2023-06-24T14:18:38;4.70;;;3.60;;
18435;SDS011;9346;52.006;4.720;2023-06-24T14:21:07;4.80;;;3.08;;
18435;SDS011;9346;52.006;4.720;2023-06-24T14:23:34;4.95;;;3.47;;
18435;SDS011;9346;52.006;4.720;2023-06-24T14:26:01;4.47;;;3.47;;
18435;SDS011;9346;52.006;4.720;2023-06-24T14:28:29;4.57;;;3.60;;
18435;SDS011;9346;52.006;4.720;2023-06-24T14:30:56;3.53;;;2.90;;
18435;SDS011;9346;52.006;4.720;2023-06-24T14:33:25;4.45;;;3.50;;
18435;SDS011;9346;52.006;4.720;2023-06-24T14:35:52;4.00;;;3.20;;
18435;SDS011;9346;52.006;4.720;2023-06-24T14:38:19;4.07;;;3.58;;
18435;SDS011;9346;52.006;4.720;2023-06-24T14:40:46;3.30;;;3.00;;
18435;SDS011;9346;52.006;4.720;2023-06-24T14:43:13;6.78;;;3.72;;
18435;SDS011;9346;52.006;4.720;2023-06-24T14:45:40;4.05;;;3.00;;
18435;SDS011;9346;52.006;4.720;2023-06-24T14:48:07;5.00;;;3.20;;
18435;SDS011;9346;52.006;4.720;2023-06-24T14:50:36;5.50;;;4.03;;
18435;SDS011;9346;52.006;4.720;2023-06-24T14:53:03;3.90;;;3.05;;
18435;SDS011;9346;52.006;4.720;2023-06-24T14:55:30;4.22;;;3.35;;
18435;SDS011;9346;52.006;4.720;2023-06-24T14:57:57;3.28;;;2.70;;
18435;SDS011;9346;52.006;4.720;2023-06-24T15:00:25;3.50;;;3.20;;
18435;SDS011;9346;52.006;4.720;2023-06-24T15:02:52;2.78;;;2.47;;
18435;SDS011;9346;52.006;4.720;2023-06-24T15:05:18;4.18;;;3.00;;
18435;SDS011;9346;52.006;4.720;2023-06-24T15:07:47;4.95;;;3.45;;
18435;SDS011;9346;52.006;4.720;2023-06-24T15:10:14;3.17;;;2.65;;
18435;SDS011;9346;52.006;4.720;2023-06-24T15:12:41;4.13;;;3.00;;
18435;SDS011;9346;52.006;4.720;2023-06-24T15:15:08;3.90;;;3.10;;
18435;SDS011;9346;52.006;4.720;2023-06-24T15:17:36;5.45;;;4.25;;